»·PEaware :: N9030C KLAX-KSAN

N9030C :: KLAX-KSAN

FLIGHT INFORMATION

Flight Status: Arrived
Operator: Privately registered:
United States
More flights under this callsign
Pilot: Craig B. (17555)
Aircraft: CESSNA 172 SKYHAWK
(C172)
More flights by this aircraft type
Origin: KLAX Los Angeles Intl
United States
Destination: KSAN San Diego Intl-Lindbergh
United States
More flights between these airports :: More routes between these airports
Route: DIRECT
File this flight plan on PilotEdge
Remarks: CAT-11 RATING FLIGHT
Altitude:
(Current/Filed)
7,500ft
Speed:
(Current/Filed)
115kts
Departed: 06-Jan-18 12:31 PM
Arrived: 06-Jan-18 01:26 PM
Distance/Time
Traveled:
95nm/0:54
Distance/Time
To Go:
Arrived

Flight Plot

Page will automatically refresh every two minutes.


Map Options




Map Legend


Flown Route
Filed Route
Departure Airport
Arrival Airport
Navaid (VOR, NDB)
Fix

Horizontal Profiles

Position Reports

Time Latitude Longitude Heading Altitude Ground
Speed
06-Jan-18 12:26 33.933722 -118.394249 89 107ft 0kts
06-Jan-18 12:27 33.933722 -118.394249 89 107ft 0kts
06-Jan-18 12:28 33.933722 -118.394249 89 107ft 0kts
06-Jan-18 12:29 33.933722 -118.394249 89 107ft 0kts
06-Jan-18 12:30 33.933722 -118.394249 89 107ft 0kts
06-Jan-18 12:31 33.933722 -118.394249 89 107ft 0kts
06-Jan-18 12:32 33.933722 -118.394249 89 107ft 0kts
06-Jan-18 12:33 33.934014 -118.394067 8 107ft 10kts
06-Jan-18 12:34 33.935607 -118.388083 85 107ft 35kts
06-Jan-18 12:35 33.936382 -118.382814 22 107ft 0kts
06-Jan-18 12:36 33.937004 -118.382865 337 107ft 16kts
06-Jan-18 12:37 33.935903 -118.404388 263 464ft 96kts
06-Jan-18 12:38 33.932713 -118.438932 259 938ft 106kts
06-Jan-18 12:39 33.923554 -118.471017 198 1418ft 109kts
06-Jan-18 12:40 33.892832 -118.464984 170 1902ft 114kts
06-Jan-18 12:41 33.861947 -118.457045 170 2393ft 112kts
06-Jan-18 12:42 33.837633 -118.436178 142 2971ft 107kts
06-Jan-18 12:43 33.812450 -118.409677 140 2998ft 125kts
06-Jan-18 12:44 33.786350 -118.382567 140 2999ft 122kts
06-Jan-18 12:45 33.761191 -118.356692 140 3310ft 116kts
06-Jan-18 12:46 33.737303 -118.332012 140 3700ft 111kts
06-Jan-18 12:47 33.714111 -118.307993 140 4091ft 109kts
06-Jan-18 12:48 33.691478 -118.284009 131 4485ft 108kts
06-Jan-18 12:49 33.675896 -118.252873 120 4881ft 109kts
06-Jan-18 12:50 33.663438 -118.226837 119 5304ft 108kts
06-Jan-18 12:51 33.645897 -118.189846 120 5878ft 110kts
06-Jan-18 12:52 33.634298 -118.163212 119 6289ft 106kts
06-Jan-18 12:53 33.620958 -118.132342 119 6781ft 102kts
06-Jan-18 12:54 33.606049 -118.097632 119 7354ft 99kts
06-Jan-18 12:55 33.594700 -118.071578 121 7478ft 114kts
06-Jan-18 12:56 33.578854 -118.036213 116 7261ft 130kts
06-Jan-18 12:57 33.553035 -118.005949 145 6612ft 127kts
06-Jan-18 12:58 33.526320 -117.979374 140 5882ft 124kts
06-Jan-18 12:59 33.499879 -117.952831 142 5090ft 124kts
06-Jan-18 13:00 33.473654 -117.926428 141 4359ft 124kts
06-Jan-18 13:01 33.447397 -117.899976 141 3661ft 123kts
06-Jan-18 13:02 33.422873 -117.875163 145 3497ft 117kts
06-Jan-18 13:03 33.397292 -117.849416 140 3493ft 121kts
06-Jan-18 13:04 33.370948 -117.822976 143 3503ft 123kts
06-Jan-18 13:05 33.345087 -117.797008 142 3462ft 118kts
06-Jan-18 13:06 33.318668 -117.770525 141 3496ft 129kts
06-Jan-18 13:07 33.291415 -117.743198 142 3493ft 128kts
06-Jan-18 13:08 33.264385 -117.716085 138 3484ft 127kts
06-Jan-18 13:09 33.237226 -117.688923 138 3469ft 126kts
06-Jan-18 13:10 33.210063 -117.661763 139 3491ft 127kts
06-Jan-18 13:11 33.182843 -117.634558 138 3467ft 126kts
06-Jan-18 13:12 33.155975 -117.607703 140 3478ft 126kts
06-Jan-18 13:13 33.129271 -117.581028 141 3477ft 125kts
06-Jan-18 13:14 33.102483 -117.554438 141 3472ft 125kts
06-Jan-18 13:15 33.075527 -117.527917 139 3462ft 125kts
06-Jan-18 13:16 33.049044 -117.501568 137 3455ft 123kts
06-Jan-18 13:17 33.022562 -117.475224 137 3455ft 123kts
06-Jan-18 13:18 32.996286 -117.449094 137 3462ft 124kts
06-Jan-18 13:19 32.970060 -117.423088 136 3481ft 123kts
06-Jan-18 13:20 32.943578 -117.396814 137 3472ft 125kts
06-Jan-18 13:21 32.916300 -117.369782 140 3474ft 128kts
06-Jan-18 13:22 32.889421 -117.343174 140 3472ft 128kts
06-Jan-18 13:23 32.862100 -117.316139 140 3472ft 128kts
06-Jan-18 13:24 32.834684 -117.289033 140 3472ft 128kts
06-Jan-18 13:25 32.807314 -117.261994 140 3469ft 128kts
06-Jan-18 13:26 32.783251 -117.238284 140 2663ft 101kts
06-Jan-18 13:27 32.761195 -117.216527 139 1559ft 102kts
06-Jan-18 13:28 32.747134 -117.192623 97 754ft 63kts
06-Jan-18 13:29 32.742293 -117.171438 100 786ft 75kts
06-Jan-18 13:30 32.731753 -117.149655 172 767ft 81kts
06-Jan-18 13:31 32.728335 -117.168440 285 303ft 71kts
06-Jan-18 13:32 32.733008 -117.187525 284 17ft 30kts
06-Jan-18 13:33 32.734173 -117.187783 75 17ft 0kts
06-Jan-18 13:34 32.733712 -117.185456 105 17ft 28kts
06-Jan-18 13:35 32.733631 -117.179331 351 21ft 7kts
06-Jan-18 13:36 32.733638 -117.178717 136 21ft 0kts
06-Jan-18 13:37 32.733638 -117.178717 136 21ft 0kts
06-Jan-18 13:38 32.733638 -117.178717 136 21ft 0kts
06-Jan-18 13:39 32.733638 -117.178717 136 21ft 0kts
06-Jan-18 13:40 32.733638 -117.178717 136 21ft 0kts
06-Jan-18 13:41 32.733638 -117.178717 136 21ft 0kts
06-Jan-18 13:42 32.733638 -117.178717 136 21ft 0kts
06-Jan-18 13:43 32.733638 -117.178717 136 21ft 0kts
06-Jan-18 13:44 32.733638 -117.178717 136 21ft 0kts
06-Jan-18 13:45 32.733638 -117.178717 136 21ft 0kts

Navigation Log

Ident Type
Flight plan parsing failed, navigation log unavailable